NEODyS-2

Near Earth Objects - Dynamic Site
NEODyS ∴ Observatories ∴ Site 691 ∴ Obs & residuals
Contact »
691  ▹ 
OBSERVATIONS AND RESIDUALS

691-Steward Observatory, Kitt Peak-Spacewatch

Detections | Residuals | Detections & Residuals

[1-200] [201-400] [401-600] [601-800] [801-1000] [1001-1200] [1201-1400] [1401-1600] [1601-1800] [1801-2000] [2001-2200] [2201-2400] [2401-2600] [2601-2800] [2801-3000] [3001-3200] [3201-3400] [3401-3600] [3601-3800] [3801-4000] [4001-4200] [4201-4400] [4401-4600] [4601-4800] [4801-5000] [5001-5200] [5201-5400] [5401-5600] [5601-5800] [5801-6000] [6001-6200] [6201-6400] [6401-6600] [6601-6800] [6801-7000] [7001-7200] [7201-7400] [7401-7600] [7601-7800] [7801-8000] [8001-8200] [8201-8400] [8401-8600] [8601-8800] [8801-9000] [9001-9200] [9201-9400] [9401-9600] [9601-9800] [9801-10000] [10001-10200] [10201-10400] [10401-10600] [10601-10800] [10801-11000] [11001-11200] [11201-11400] [11401-11600] [11601-11800] [11801-12000] [12001-12200] [12201-12400] [12401-12600] [12601-12800] [12801-13000] [13001-13200] [13201-13400] [13401-13600] [13601-13800] [13801-14000] [14001-14200] [14201-14400] [14401-14600] [14601-14800] [14801-15000] [15001-15200] [15201-15400] [15401-15600] [15601-15800] [15801-16000] [16001-16200] [16201-16400] [16401-16600] [16601-16800] [16801-17000] [17001-17200] [17201-17400] [17401-17600] [17601-17800] [17801-18000] [18001-18200] [18201-18400] [18401-18600] [18601-18800] [18801-19000] [19001-19200] [19201-19400] [19401-19600] [19601-19800] [19801-20000] [20001-20200] [20201-20400] [20401-20600] [20601-20800] [20801-21000] [21001-21200] [21201-21400] [21401-21600] [21601-21800] [21801-22000] [22001-22200] [22201-22400] [22401-22600] [22601-22800] [22801-23000] [23001-23200] [23201-23400] [23401-23600] [23601-23800] [23801-24000] [24001-24200] [24201-24400] [24401-24600] [24601-24800] [24801-25000] [25001-25200] [25201-25400] [25401-25600] [25601-25800] [25801-26000] [26001-26200] [26201-26400] [26401-26600] [26601-26800] [26801-27000] [27001-27200] [27201-27400] [27401-27600] [27601-27800] [27801-28000] [28001-28200] [28201-28400] [28401-28600] [28601-28800] [28801-29000] [29001-29200] [29201-29400] [29401-29600] [29601-29800] [29801-30000] [30001-30200] [30201-30400] [30401-30600] [30601-30800] [30801-31000] [31001-31200] [31201-31400] [31401-31600] [31601-31800] [31801-32000] [32001-32200] [32201-32400] [32401-32600] [32601-32800] [32801-33000] [33001-33200] [33201-33400] [33401-33600] [33601-33800] [33801-34000] [34001-34200] [34201-34400] [34401-34600] [34601-34800] [34801-35000] [35001-35200] [35201-35400] [35401-35600] [35601-35800] [35801-36000] [36001-36200] [36201-36400] [36401-36600] [36601-36800] [36801-37000] [37001-37200] [37201-37400] [37401-37600] [37601-37800] [37801-38000] [38001-38200] [38201-38400] [38401-38600] [38601-38800] [38801-39000] [39001-39200] [39201-39400] [39401-39600] [39601-39800] [39801-40000] [40001-40200] [40201-40400] [40401-40600] [40601-40800] [40801-41000] [41001-41200] [41201-41400] [41401-41600] [41601-41800] [41801-42000] [42001-42200] [42201-42400] [42401-42600] [42601-42800] [42801-43000] [43001-43200] [43201-43400] [43401-43600] [43601-43800] [43801-44000] [44001-44200] [44201-44400] [44401-44600] [44601-44800] [44801-45000] [45001-45200] [45201-45400] [45401-45600] [45601-45800] [45801-46000] [46001-46200] [46201-46400] [46401-46600] [46601-46800] [46801-47000] [47001-47200] [47201-47400] [47401-47600] [47601-47800] [47801-48000] [48001-48200] [48201-48400] [48401-48600] [48601-48800] [48801-49000] [49001-49200] [49201-49400] [49401-49600] [49601-49800] [49801-50000] [50001-50200] [50201-50388]

Designation T Tech N Date Right Ascension Declination Apparent Magnitude Star Catalog Site code χ Used A Used M
yr-mo-day precision hr:min:sec precision rms F bias residual deg min sec precision rms F bias residual mag/col rms residual
2015HC117 O C 2015-04-25.25291 1.000E-05 15:05:17.140 1.500E-01 0.500 F 0.192 -0.718 -02° 32' 50.80" 1.000E-01 0.500 F 0.208 -0.238 21.0 V 0.70 0.15 o 691 1.55 Yes Yes
2002RS28 O C 2015-04-25.34546 1.000E-05 15:02:38.810 1.500E-01 0.500 F 0.170 0.028 -01° 00' 38.00" 1.000E-01 0.500 F 0.098 0.114 o 691 0.24 Yes No
2002RS28 O C 2015-04-25.36431 1.000E-05 15:02:37.340 1.500E-01 0.500 F 0.170 -0.179 -00° 59' 37.20" 1.000E-01 0.500 F 0.098 0.050 o 691 0.37 Yes No
2002RS28 O C 2015-04-25.38316 1.000E-05 15:02:35.890 1.500E-01 0.500 F 0.170 -0.089 -00° 58' 36.10" 1.000E-01 0.500 F 0.098 0.267 o 691 0.56 Yes No
2003JC13 O C 2015-04-27.18098 1.000E-05 11:58:11.600 1.500E-01 0.500 F 0.189 -0.200 -00° 09' 51.50" 1.000E-01 0.500 F 0.231 0.490 20.5 V 0.70 0.05 o 691 1.06 Yes Yes
2003JC13 O C 2015-04-27.19041 1.000E-05 11:58:10.840 1.500E-01 0.500 F 0.189 -0.445 -00° 09' 39.30" 1.000E-01 0.500 F 0.231 -0.153 20.7 V 0.70 0.25 o 691 0.94 Yes Yes
2003JC13 O C 2015-04-27.19983 1.000E-05 11:58:10.050 1.500E-01 0.500 F 0.189 -1.150 -00° 09' 26.10" 1.000E-01 0.500 F 0.231 0.221 20.5 V 0.70 0.05 o 691 2.35 Yes Yes
2000PM8 O C 2015-04-27.32630 1.000E-05 16:08:25.440 1.500E-01 0.500 F 0.016 -0.458 -03° 22' 06.60" 1.000E-01 0.500 F 0.226 -0.249 20.1 V 0.70 0.21 o 691 1.04 Yes Yes
2000PM8 O C 2015-04-27.34515 1.000E-05 16:08:24.540 1.500E-01 0.500 F 0.016 0.007 -03° 21' 57.30" 1.000E-01 0.500 F 0.226 -0.148 20.1 V 0.70 0.21 o 691 0.30 Yes Yes
2000PM8 O C 2015-04-27.36400 1.000E-05 16:08:23.590 1.500E-01 0.500 F 0.016 -0.262 -03° 21' 48.10" 1.000E-01 0.500 F 0.226 -0.149 20.1 V 0.70 0.21 o 691 0.60 Yes Yes
Ganymed O C 2015-04-28.27302 1.000E-05 15:28:05.770 1.500E-01 0.500 F 0.203 0.459 -09° 49' 52.40" 1.000E-01 0.500 F 0.112 0.196 14.3 V 0.70 1.35 o 691 1.00 Yes Yes
2001HY7 O C 2015-04-28.28244 1.000E-05 15:30:52.610 1.500E-01 0.500 F 0.159 -0.159 -12° 05' 52.50" 1.000E-01 0.500 F 0.057 0.100 19.1 V 0.70 0.22 o 691 0.38 Yes Yes
Ganymed O C 2015-04-28.29187 1.000E-05 15:28:04.680 1.500E-01 0.500 F 0.203 -0.184 -09° 49' 36.70" 1.000E-01 0.500 F 0.112 -0.024 13.5 V 0.70 0.55 o 691 0.37 Yes Yes
2001HY7 O C 2015-04-28.30130 1.000E-05 15:30:47.470 1.500E-01 0.500 F 0.159 -0.310 -12° 05' 17.60" 1.000E-01 0.500 F 0.057 0.115 19.2 V 0.70 0.32 o 691 0.66 Yes Yes
Ganymed O C 2015-04-28.31073 1.000E-05 15:28:03.640 1.500E-01 0.500 F 0.203 -0.049 -09° 49' 20.80" 1.000E-01 0.500 F 0.112 -0.065 13.6 V 0.70 0.65 o 691 0.16 Yes Yes
2001HY7 O C 2015-04-28.32016 1.000E-05 15:30:42.330 1.500E-01 0.500 F 0.159 -0.315 -12° 04' 42.70" 1.000E-01 0.500 F 0.057 0.045 19.2 V 0.70 0.32 o 691 0.64 Yes Yes
2015FS332 O C 2015-04-28.34814 1.000E-05 15:21:43.560 1.500E-01 0.500 F 0.229 -0.286 +23° 26' 00.00" 1.000E-01 0.500 F 0.168 0.096 19.8 V 0.70 -0.03 o 691 0.61 Yes Yes
2015FS332 O C 2015-04-28.35134 1.000E-05 15:21:43.410 1.500E-01 0.500 F 0.229 0.367 +23° 26' 09.70" 1.000E-01 0.500 F 0.168 -0.133 19.6 V 0.70 -0.23 o 691 0.78 Yes Yes
2015FS332 O C 2015-04-28.35451 1.000E-05 15:21:43.170 1.500E-01 0.500 F 0.229 -0.243 +23° 26' 19.80" 1.000E-01 0.500 F 0.168 0.132 19.8 V 0.70 -0.03 o 691 0.56 Yes Yes
2012TX78 O C 2015-04-29.29797 1.000E-05 14:46:02.400 1.500E-01 0.500 F 0.055 -0.404 -01° 16' 17.40" 1.000E-01 0.500 F 0.147 0.351 20.8 V 0.70 -0.23 o 691 1.08 Yes Yes
2012TX78 O C 2015-04-29.31682 1.000E-05 14:46:00.920 1.500E-01 0.500 F 0.055 -0.299 -01° 16' 12.40" 1.000E-01 0.500 F 0.147 -0.281 21.3 V 0.70 0.27 o 691 0.83 Yes Yes
2012TX78 O C 2015-04-29.33568 1.000E-05 14:45:59.410 1.500E-01 0.500 F 0.055 -0.619 -01° 16' 06.20" 1.000E-01 0.500 F 0.147 0.285 21.4 V 0.70 0.37 o 691 1.38 Yes Yes
2008JQ24 O C 2015-05-01.39755 1.000E-05 15:57:43.720 1.500E-01 0.500 F 0.114 -0.073 -08° 17' 39.90" 1.000E-01 0.500 F 0.148 -0.067 20.3 V 0.70 0.27 o 691 0.20 Yes Yes
2008JQ24 O C 2015-05-01.41639 1.000E-05 15:57:42.710 1.500E-01 0.500 F 0.114 -0.374 -08° 17' 37.60" 1.000E-01 0.500 F 0.148 0.267 20.3 V 0.70 0.27 o 691 0.92 Yes Yes
2008JQ24 O C 2015-05-01.43523 1.000E-05 15:57:41.740 1.500E-01 0.500 F 0.114 -0.102 -08° 17' 35.80" 1.000E-01 0.500 F 0.148 0.088 20.4 V 0.70 0.37 o 691 0.27 Yes Yes
2000HD74 O C 2015-05-06.31234 1.000E-05 15:55:41.950 1.500E-01 0.500 F 0.236 -0.061 +09° 21' 16.60" 1.000E-01 0.500 F 0.161 -0.374 17.8 V 0.70 -0.15 o 691 0.76 Yes Yes
2000HD74 O C 2015-05-06.31390 1.000E-05 15:55:41.580 1.500E-01 0.500 F 0.236 0.021 +09° 21' 11.10" 1.000E-01 0.500 F 0.161 -0.292 18.1 V 0.70 0.15 o 691 0.59 Yes Yes
2000HD74 O C 2015-05-06.31545 1.000E-05 15:55:41.190 1.500E-01 0.500 F 0.236 -0.228 +09° 21' 05.60" 1.000E-01 0.500 F 0.161 -0.245 18.0 V 0.70 0.05 o 691 0.67 Yes Yes
2008KV2 O C H 2015-05-06.32016 1.000E-05 14:40:54.310 1.500E-01 0.500 F 0.101 0.176 -02° 06' 44.60" 1.000E-01 0.500 F 0.130 0.002 19.2 V 0.70 0.56 o 691 0.36 Yes Yes
2008KV2 O C H 2015-05-06.32172 1.000E-05 14:40:53.700 1.500E-01 0.500 F 0.101 0.109 -02° 06' 44.80" 1.000E-01 0.500 F 0.130 -0.478 19.0 V 0.70 0.36 o 691 1.00 Yes Yes
2008KV2 O C H 2015-05-06.32327 1.000E-05 14:40:53.100 1.500E-01 0.500 F 0.101 0.133 -02° 06' 44.90" 1.000E-01 0.500 F 0.130 -0.855 18.6 V 0.70 -0.04 o 691 1.77 Yes Yes
2015HG170 O C H 2015-05-07.18984 1.000E-05 14:33:26.240 1.500E-01 0.500 F 0.104 0.323 -18° 27' 47.50" 1.000E-01 0.500 F 0.062 -0.349 20.9 V 0.70 0.40 o 691 0.96 Yes Yes
2015HG170 O C H 2015-05-07.19391 1.000E-05 14:33:26.000 1.500E-01 0.500 F 0.104 1.119 -18° 27' 48.40" 1.000E-01 0.500 F 0.062 -0.573 21.1 V 0.70 0.60 o 691 2.53 Yes Yes
2015HG170 O C H 2015-05-07.19798 1.000E-05 14:33:25.660 1.500E-01 0.500 F 0.104 0.498 -18° 27' 48.60" 1.000E-01 0.500 F 0.062 -0.101 21.0 V 0.70 0.50 o 691 1.02 Yes Yes
2015GZ13 O C 2015-05-07.20636 1.000E-05 13:42:13.000 1.500E-01 0.500 F 0.145 -0.801 +02° 03' 35.40" 1.000E-01 0.500 F 0.093 -0.149 19.9 V 0.70 -0.07 o 691 1.64 Yes Yes
2015GZ13 O C 2015-05-07.20815 1.000E-05 13:42:12.460 1.500E-01 0.500 F 0.145 -1.337 +02° 03' 33.80" 1.000E-01 0.500 F 0.093 0.674 20.4 V 0.70 0.43 o 691 3.01 Yes Yes
2015GZ13 O C 2015-05-07.20993 1.000E-05 13:42:12.010 1.500E-01 0.500 F 0.145 -0.566 +02° 03' 30.60" 1.000E-01 0.500 F 0.093 -0.117 20.3 V 0.70 0.33 o 691 1.16 Yes Yes
2015DP155 O C H 2015-05-08.41952 1.000E-05 20:30:43.370 1.500E-01 0.500 F -0.033 0.790 +11° 05' 02.40" 1.000E-01 0.500 F 0.279 -0.828 o 691 2.30 Yes No
2015DP155 O C H 2015-05-08.42133 1.000E-05 20:30:43.930 1.500E-01 0.500 F -0.033 -0.182 +11° 04' 59.50" 1.000E-01 0.500 F 0.279 -0.231 19.5 V 0.70 -0.29 o 691 0.59 Yes Yes
2009JO2 O C 2015-05-08.42444 1.000E-05 17:58:17.840 1.500E-01 0.500 F -0.070 -0.108 +22° 24' 12.90" 1.000E-01 0.500 F 0.318 -0.050 18.9 V 0.70 -0.06 o 691 0.24 Yes Yes
2009JO2 O C 2015-05-08.42623 1.000E-05 17:58:17.350 1.500E-01 0.500 F -0.070 0.062 +22° 24' 18.20" 1.000E-01 0.500 F 0.318 -0.059 18.9 V 0.70 -0.06 o 691 0.17 Yes Yes
2009JO2 O C 2015-05-08.42802 1.000E-05 17:58:16.840 1.500E-01 0.500 F -0.070 -0.044 +22° 24' 23.60" 1.000E-01 0.500 F 0.318 0.033 19.1 V 0.70 0.14 o 691 0.11 Yes Yes
2015DE198 O C H 2015-05-09.19081 1.000E-05 08:29:48.360 1.500E-01 0.500 F 0.082 -0.529 +27° 30' 25.30" 1.000E-01 0.500 F 0.220 -0.163 20.7 V 0.70 -0.08 o 691 1.11 Yes Yes
2015DE198 O C H 2015-05-09.19352 1.000E-05 08:29:48.560 1.500E-01 0.500 F 0.082 -1.173 +27° 30' 21.40" 1.000E-01 0.500 F 0.220 -0.392 20.9 V 0.70 0.12 o 691 2.47 Yes Yes
2015DE198 O C H 2015-05-09.19600 1.000E-05 08:29:48.760 1.500E-01 0.500 F 0.082 -1.538 +27° 30' 18.00" 1.000E-01 0.500 F 0.220 -0.432 20.8 V 0.70 0.02 o 691 3.19 No Yes
2015GY O C 2015-05-09.19953 1.000E-05 10:44:32.930 1.500E-01 0.500 F 0.185 -0.649 +32° 49' 44.90" 1.000E-01 0.500 F 0.374 0.126 20.0 V 0.70 0.10 o 691 1.34 Yes Yes
2015GY O C 2015-05-09.20132 1.000E-05 10:44:32.770 1.500E-01 0.500 F 0.185 -0.505 +32° 49' 54.90" 1.000E-01 0.500 F 0.374 0.629 20.0 V 0.70 0.10 o 691 1.65 Yes Yes
2015GY O C 2015-05-09.20287 1.000E-05 10:44:32.650 1.500E-01 0.500 F 0.185 -0.150 +32° 50' 02.40" 1.000E-01 0.500 F 0.374 -0.091 20.4 V 0.70 0.50 o 691 0.36 Yes Yes
2015GJ O C H 2015-05-09.20730 1.000E-05 11:26:05.170 1.500E-01 0.500 F 0.217 -0.353 -05° 17' 44.80" 1.000E-01 0.500 F 0.251 -0.802 o 691 1.78 Yes No
2015GJ O C H 2015-05-09.21157 1.000E-05 11:26:05.330 1.500E-01 0.500 F 0.217 0.378 -05° 17' 40.90" 1.000E-01 0.500 F 0.251 -0.199 21.1 V 0.70 -0.01 o 691 0.86 Yes Yes
2015GJ O C H 2015-05-09.21583 1.000E-05 11:26:05.420 1.500E-01 0.500 F 0.217 0.066 -05° 17' 38.10" 1.000E-01 0.500 F 0.251 -0.689 21.2 V 0.70 0.09 o 691 1.40 Yes Yes
2015HB10 O C H 2015-05-09.28413 1.000E-05 14:39:46.190 1.500E-01 0.500 F 0.191 -0.400 -22° 33' 50.10" 1.000E-01 0.500 F 0.038 0.024 20.4 V 0.70 -0.53 o 691 0.81 Yes Yes
2015HB10 O C H 2015-05-09.28708 1.000E-05 14:39:45.890 1.500E-01 0.500 F 0.191 -0.495 -22° 33' 49.10" 1.000E-01 0.500 F 0.038 -0.094 20.6 V 0.70 -0.33 o 691 1.01 Yes Yes
2015HB10 O C H 2015-05-09.29002 1.000E-05 14:39:45.560 1.500E-01 0.500 F 0.191 -1.019 -22° 33' 47.90" 1.000E-01 0.500 F 0.038 -0.010 20.5 V 0.70 -0.43 o 691 2.04 Yes Yes
2015HQ43 O C H 2015-05-09.29625 1.000E-05 14:44:34.320 1.500E-01 0.500 F 0.135 -0.284 -23° 26' 30.30" 1.000E-01 0.500 F 0.204 0.024 20.9 V 0.70 0.32 o 691 0.58 Yes Yes
2015HQ43 O C H 2015-05-09.29874 1.000E-05 14:44:34.180 1.500E-01 0.500 F 0.135 -0.227 -23° 26' 35.60" 1.000E-01 0.500 F 0.204 -0.135 21.3 V 0.70 0.72 o 691 0.54 Yes Yes
2015HQ43 O C H 2015-05-09.30122 1.000E-05 14:44:34.050 1.500E-01 0.500 F 0.135 -0.041 -23° 26' 41.70" 1.000E-01 0.500 F 0.204 -1.120 21.0 V 0.70 0.42 o 691 2.29 Yes Yes
2015HG170 O C H 2015-05-09.30453 1.000E-05 14:31:10.000 1.500E-01 0.500 F 0.208 0.128 -18° 32' 38.50" 1.000E-01 0.500 F 0.077 -0.294 21.1 V 0.70 0.43 o 691 0.65 Yes Yes
2015HG170 O C H 2015-05-09.30873 1.000E-05 14:31:09.680 1.500E-01 0.500 F 0.208 -0.303 -18° 32' 39.00" 1.000E-01 0.500 F 0.077 -0.269 21.0 V 0.70 0.33 o 691 0.81 Yes Yes
2015HG170 O C H 2015-05-09.31293 1.000E-05 14:31:09.400 1.500E-01 0.500 F 0.208 -0.168 -18° 32' 40.10" 1.000E-01 0.500 F 0.077 -0.849 21.0 V 0.70 0.33 o 691 1.74 Yes Yes
2015GZ13 O C 2015-05-09.31627 1.000E-05 13:32:19.980 1.500E-01 0.500 F 0.238 -1.586 +01° 13' 37.90" 1.000E-01 0.500 F 0.186 0.037 20.2 V 0.70 0.24 o 691 3.16 No Yes
2015GZ13 O C 2015-05-09.31806 1.000E-05 13:32:19.530 1.500E-01 0.500 F 0.238 -0.507 +01° 13' 35.30" 1.000E-01 0.500 F 0.186 0.100 19.8 V 0.70 -0.16 o 691 1.04 Yes Yes
2015GZ13 O C 2015-05-09.31985 1.000E-05 13:32:19.020 1.500E-01 0.500 F 0.238 -0.328 +01° 13' 32.60" 1.000E-01 0.500 F 0.186 0.062 20.1 V 0.70 0.14 o 691 0.67 Yes Yes
2015GS O C 2015-05-09.32315 1.000E-05 14:31:10.070 1.500E-01 0.500 F 0.182 -0.245 +28° 42' 39.60" 1.000E-01 0.500 F 0.127 -0.272 20.7 V 0.70 0.23 o 691 0.75 Yes Yes
2015GS O C 2015-05-09.32540 1.000E-05 14:31:09.940 1.500E-01 0.500 F 0.182 -0.196 +28° 42' 33.50" 1.000E-01 0.500 F 0.127 0.020 20.4 V 0.70 -0.07 o 691 0.40 Yes Yes
2015GS O C 2015-05-09.32765 1.000E-05 14:31:09.780 1.500E-01 0.500 F 0.182 -0.542 +28° 42' 26.90" 1.000E-01 0.500 F 0.127 -0.187 20.4 V 0.70 -0.07 o 691 1.17 Yes Yes
2015HP43 O C 2015-05-09.33113 1.000E-05 15:29:01.930 1.500E-01 0.500 F 0.226 -0.270 +20° 29' 48.60" 1.000E-01 0.500 F 0.202 -0.100 18.6 V 0.70 -0.07 o 691 0.58 Yes Yes
2015HP43 O C 2015-05-09.33269 1.000E-05 15:29:01.960 1.500E-01 0.500 F 0.226 -0.080 +20° 29' 37.80" 1.000E-01 0.500 F 0.202 -0.117 18.6 V 0.70 -0.07 o 691 0.29 Yes Yes
2015HP43 O C 2015-05-09.33424 1.000E-05 15:29:01.980 1.500E-01 0.500 F 0.226 -0.029 +20° 29' 27.10" 1.000E-01 0.500 F 0.202 -0.099 18.7 V 0.70 0.03 o 691 0.21 Yes Yes
2015HA1 O C 2015-05-09.33613 1.000E-05 15:36:39.620 1.500E-01 0.500 F 0.231 -0.267 +17° 41' 14.70" 1.000E-01 0.500 F 0.243 -0.055 18.1 V 0.70 0.15 o 691 0.55 Yes Yes
2015HA1 O C 2015-05-09.33769 1.000E-05 15:36:38.810 1.500E-01 0.500 F 0.231 -0.393 +17° 41' 08.50" 1.000E-01 0.500 F 0.243 0.223 18.0 V 0.70 0.05 o 691 0.91 Yes Yes
2015HA1 O C 2015-05-09.33924 1.000E-05 15:36:38.030 1.500E-01 0.500 F 0.231 -0.163 +17° 41' 01.70" 1.000E-01 0.500 F 0.243 -0.138 18.0 V 0.70 0.05 o 691 0.43 Yes Yes
2014WJ70 O C H 2015-05-10.22662 1.000E-05 16:48:29.440 1.500E-01 0.500 F 0.221 -0.370 +04° 44' 59.30" 1.000E-01 0.500 F 0.243 0.123 18.9 V 0.70 0.28 o 691 0.78 Yes Yes
2014WJ70 O C H 2015-05-10.24547 1.000E-05 16:48:28.520 1.500E-01 0.500 F 0.221 -0.496 +04° 44' 57.80" 1.000E-01 0.500 F 0.243 -0.140 18.8 V 0.70 0.18 o 691 1.04 Yes Yes
2014WJ70 O C H 2015-05-10.26430 1.000E-05 16:48:27.640 1.500E-01 0.500 F 0.221 0.099 +04° 44' 56.60" 1.000E-01 0.500 F 0.243 -0.085 18.8 V 0.70 0.18 o 691 0.26 Yes Yes
2015HW11 O C 2015-05-10.38139 1.000E-05 14:16:29.310 1.500E-01 0.500 F 0.294 0.177 -16° 57' 47.70" 1.000E-01 0.500 F 0.043 -0.008 19.8 V 0.70 0.21 o 691 0.36 Yes Yes
2015HW11 O C 2015-05-10.38295 1.000E-05 14:16:29.720 1.500E-01 0.500 F 0.294 -0.674 -16° 57' 46.30" 1.000E-01 0.500 F 0.043 -0.235 20.4 V 0.70 0.81 o 691 1.46 Yes Yes
2015HW11 O C 2015-05-10.38451 1.000E-05 14:16:30.210 1.500E-01 0.500 F 0.294 -0.381 -16° 57' 44.60" 1.000E-01 0.500 F 0.043 -0.164 20.0 V 0.70 0.41 o 691 0.84 Yes Yes
2007HA59 O C H 2015-05-10.38782 1.000E-05 15:43:13.610 1.500E-01 0.500 F -0.040 -0.310 -15° 09' 40.60" 1.000E-01 0.500 F 0.161 -0.180 20.9 V 0.70 0.26 o 691 0.72 Yes Yes
2007HA59 O C H 2015-05-10.39127 1.000E-05 15:43:13.320 1.500E-01 0.500 F -0.040 -0.539 -15° 09' 41.10" 1.000E-01 0.500 F 0.161 -0.466 20.8 V 0.70 0.16 o 691 1.43 Yes Yes
2007HA59 O C H 2015-05-10.39495 1.000E-05 15:43:12.980 1.500E-01 0.500 F -0.040 -1.227 -15° 09' 40.20" 1.000E-01 0.500 F 0.161 0.663 20.1 V 0.70 -0.54 o 691 2.79 Yes Yes
2015JJ O C H 2015-05-10.39800 1.000E-05 14:52:37.740 1.500E-01 0.500 F 0.333 -0.140 +05° 49' 00.30" 1.000E-01 0.500 F 0.251 0.070 18.4 V 0.70 0.23 o 691 0.32 Yes Yes
2015JJ O C H 2015-05-10.39932 1.000E-05 14:52:37.670 1.500E-01 0.500 F 0.333 -0.004 +05° 49' 12.40" 1.000E-01 0.500 F 0.251 -0.076 18.4 V 0.70 0.23 o 691 0.15 Yes Yes
2015JJ O C H 2015-05-10.40065 1.000E-05 14:52:37.590 1.500E-01 0.500 F 0.333 -0.013 +05° 49' 24.60" 1.000E-01 0.500 F 0.251 -0.212 18.4 V 0.70 0.23 o 691 0.43 Yes Yes
2015HV11 O C 2015-05-10.42297 1.000E-05 15:21:56.120 1.500E-01 0.500 F 0.131 -0.078 +01° 50' 36.50" 1.000E-01 0.500 F 0.171 0.129 20.0 V 0.70 0.63 o 691 0.34 Yes Yes
2015HV11 O C 2015-05-10.42453 1.000E-05 15:21:56.790 1.500E-01 0.500 F 0.131 0.330 +01° 50' 22.70" 1.000E-01 0.500 F 0.171 -0.117 20.5 V 0.70 1.13 o 691 0.78 Yes Yes
2015HV11 O C 2015-05-10.42608 1.000E-05 15:21:57.410 1.500E-01 0.500 F 0.131 0.043 +01° 50' 09.30" 1.000E-01 0.500 F 0.171 -0.049 20.3 V 0.70 0.93 o 691 0.15 Yes Yes
2015JV O C H 2015-05-12.19878 1.000E-05 16:38:27.300 1.500E-01 0.500 F 0.105 0.121 +17° 02' 17.50" 1.000E-01 0.500 F 0.240 -0.124 18.7 V 0.70 -0.02 o 691 0.35 Yes Yes
2015JV O C H 2015-05-12.20010 1.000E-05 16:38:26.940 1.500E-01 0.500 F 0.105 -0.268 +17° 02' 04.80" 1.000E-01 0.500 F 0.240 -0.056 18.6 V 0.70 -0.12 o 691 0.55 Yes Yes
2015JV O C H 2015-05-12.20142 1.000E-05 16:38:26.620 1.500E-01 0.500 F 0.105 -0.079 +17° 01' 52.70" 1.000E-01 0.500 F 0.240 0.612 19.0 V 0.70 0.28 o 691 1.25 Yes Yes
2014WJ70 O C 2015-05-15.22580 1.000E-05 16:44:28.520 1.500E-01 0.500 F 0.281 -0.425 +04° 33' 44.90" 1.000E-01 0.500 F 0.229 0.083 o 691 0.87 Yes No
2014WJ70 O C 2015-05-15.25805 1.000E-05 16:44:26.780 1.500E-01 0.500 F 0.281 -0.157 +04° 33' 37.70" 1.000E-01 0.500 F 0.229 -0.825 o 691 1.69 Yes No
2014WJ70 O C 2015-05-15.27689 1.000E-05 16:44:25.750 1.500E-01 0.500 F 0.281 -0.053 +04° 33' 34.80" 1.000E-01 0.500 F 0.229 -0.024 o 691 0.12 Yes No
2013BO73 O C 2015-05-18.15522 1.000E-05 11:30:35.420 1.500E-01 0.500 F 0.296 -0.404 -03° 45' 05.70" 1.000E-01 0.500 F 0.144 0.078 o 691 0.82 Yes No
2013BO73 O C 2015-05-18.15724 1.000E-05 11:30:35.030 1.500E-01 0.500 F 0.296 -0.579 -03° 45' 05.50" 1.000E-01 0.500 F 0.144 -0.266 o 691 1.28 Yes No
2013BO73 O C 2015-05-18.15926 1.000E-05 11:30:34.640 1.500E-01 0.500 F 0.296 -0.754 -03° 45' 04.50" 1.000E-01 0.500 F 0.144 0.190 o 691 1.56 Yes No
2015JJ O C 2015-05-18.16274 1.000E-05 14:49:53.890 1.500E-01 0.500 F 0.018 -0.151 +19° 42' 33.50" 1.000E-01 0.500 F 0.189 -0.153 o 691 0.43 Yes No
2015JJ O C 2015-05-18.16429 1.000E-05 14:49:53.850 1.500E-01 0.500 F 0.018 -0.026 +19° 42' 40.20" 1.000E-01 0.500 F 0.189 -0.138 o 691 0.28 Yes No
2015JJ O C 2015-05-18.16607 1.000E-05 14:49:53.790 1.500E-01 0.500 F 0.018 -0.076 +19° 42' 48.00" 1.000E-01 0.500 F 0.189 -0.012 o 691 0.15 Yes No
2015JD1 O C 2015-05-19.16606 1.000E-05 16:32:09.310 1.500E-01 0.500 F 0.191 -0.717 +08° 07' 25.40" 1.000E-01 0.500 F 0.133 0.312 19.9 V 0.70 0.52 o 691 1.57 Yes Yes
2015JD1 O C 2015-05-19.18490 1.000E-05 16:32:07.840 1.500E-01 0.500 F 0.191 -0.575 +08° 08' 58.30" 1.000E-01 0.500 F 0.133 -0.074 19.8 V 0.70 0.42 o 691 1.16 Yes Yes
2015JD1 O C 2015-05-19.21264 1.000E-05 16:32:05.650 1.500E-01 0.500 F 0.191 -0.119 +08° 11' 16.10" 1.000E-01 0.500 F 0.133 0.408 19.6 V 0.70 0.22 o 691 0.85 Yes Yes
2015KR121 O C 2015-05-23.27876 1.000E-05 16:42:29.330 1.500E-01 0.500 F 0.299 0.162 +07° 29' 02.40" 1.000E-01 0.500 F 0.032 -0.100 20.9 V 0.70 -0.33 o 691 0.40 Yes Yes
2015KR121 O C 2015-05-23.29759 1.000E-05 16:42:30.670 1.500E-01 0.500 F 0.299 0.078 +07° 28' 42.00" 1.000E-01 0.500 F 0.032 -0.375 21.1 V 0.70 -0.13 o 691 0.80 Yes Yes
2015KR121 O C 2015-05-23.31644 1.000E-05 16:42:31.980 1.500E-01 0.500 F 0.299 -0.365 +07° 28' 22.40" 1.000E-01 0.500 F 0.032 0.233 21.7 V 0.70 0.47 o 691 0.91 Yes Yes
2010XL69 O C 2015-05-23.33710 1.000E-05 16:37:17.780 1.500E-01 0.500 F 0.098 -0.287 +10° 41' 14.80" 1.000E-01 0.500 F 0.103 0.097 19.8 V 0.70 1.17 o 691 0.61 Yes Yes
2010XL69 O C 2015-05-23.35596 1.000E-05 16:37:16.280 1.500E-01 0.500 F 0.098 -0.236 +10° 40' 30.80" 1.000E-01 0.500 F 0.103 0.140 18.8 V 0.70 0.17 o 691 0.55 Yes Yes
2010XL69 O C 2015-05-23.37480 1.000E-05 16:37:14.790 1.500E-01 0.500 F 0.098 -0.108 +10° 39' 46.60" 1.000E-01 0.500 F 0.103 0.025 19.1 V 0.70 0.47 o 691 0.22 Yes Yes
2012FB57 O C 2015-05-24.25477 1.000E-05 16:16:50.360 1.500E-01 0.500 F 0.377 -0.139 -09° 10' 57.20" 1.000E-01 0.500 F 0.158 -0.184 20.1 V 0.70 0.18 o 691 0.46 Yes Yes
2012FB57 O C 2015-05-24.27365 1.000E-05 16:16:48.840 1.500E-01 0.500 F 0.365 -0.046 -09° 11' 01.70" 1.000E-01 0.500 F 0.189 -0.109 20.0 V 0.70 0.08 o 691 0.24 Yes Yes
2012FB57 O C 2015-05-24.29253 1.000E-05 16:16:47.310 1.500E-01 0.500 F 0.365 -0.071 -09° 11' 06.30" 1.000E-01 0.500 F 0.189 -0.127 20.0 V 0.70 0.08 o 691 0.29 Yes Yes
2003BX33 O C 2015-05-24.37289 1.000E-05 17:23:06.990 1.500E-01 0.500 F 0.089 -0.004 +15° 36' 55.70" 1.000E-01 0.500 F 0.182 -0.192 19.8 V 0.70 -0.01 o 691 0.39 Yes Yes
Ahau O C 2015-05-24.37289 1.000E-05 17:22:14.580 1.500E-01 0.500 F 0.068 -0.176 +16° 32' 18.20" 1.000E-01 0.500 F 0.187 0.034 19.3 V 0.70 0.20 o 691 0.36 Yes Yes
2003BX33 O C 2015-05-24.39176 1.000E-05 17:23:05.680 1.500E-01 0.500 F 0.089 -0.367 +15° 37' 55.00" 1.000E-01 0.500 F 0.182 0.170 19.8 V 0.70 -0.01 o 691 0.82 Yes Yes
Ahau O C 2015-05-24.39176 1.000E-05 17:22:12.650 1.500E-01 0.500 F 0.068 -0.358 +16° 32' 20.80" 1.000E-01 0.500 F 0.187 0.098 19.3 V 0.70 0.21 o 691 0.74 Yes Yes
2003BX33 O C 2015-05-24.41064 1.000E-05 17:23:04.400 1.500E-01 0.500 F 0.089 -0.326 +15° 38' 53.60" 1.000E-01 0.500 F 0.182 -0.130 19.8 V 0.70 -0.01 o 691 0.71 Yes Yes
Ahau O C 2015-05-24.41064 1.000E-05 17:22:10.770 1.500E-01 0.500 F 0.068 0.183 +16° 32' 22.80" 1.000E-01 0.500 F 0.187 -0.391 19.2 V 0.70 0.11 o 691 0.86 Yes Yes
2001TA45 O C 2015-05-26.29259 1.000E-05 16:18:30.540 1.500E-01 0.500 F 0.231 -0.245 +02° 47' 50.30" 1.000E-01 0.500 F 0.127 0.064 19.0 V 0.70 0.35 o 691 0.51 Yes Yes
2001TA45 O C 2015-05-26.31145 1.000E-05 16:18:29.100 1.500E-01 0.500 F 0.231 -0.304 +02° 48' 21.10" 1.000E-01 0.500 F 0.127 0.080 19.1 V 0.70 0.45 o 691 0.63 Yes Yes
2001TA45 O C 2015-05-26.33033 1.000E-05 16:18:27.650 1.500E-01 0.500 F 0.231 -0.482 +02° 48' 51.80" 1.000E-01 0.500 F 0.127 -0.017 18.9 V 0.70 0.25 o 691 0.97 Yes Yes
2001TA45 O C 2015-05-28.28540 1.000E-05 16:16:12.630 1.500E-01 0.500 F 0.247 -0.209 +03° 41' 17.40" 1.000E-01 0.500 F 0.130 0.215 19.0 V 0.70 0.34 o 691 0.60 Yes Yes
2014WJ70 O C 2015-05-28.29012 1.000E-05 16:33:02.710 1.500E-01 0.500 F 0.097 -0.244 +03° 16' 45.00" 1.000E-01 0.500 F 0.127 0.173 18.8 V 0.70 -0.08 o 691 0.60 Yes Yes
2001TA45 O C 2015-05-28.30428 1.000E-05 16:16:11.170 1.500E-01 0.500 F 0.247 -0.132 +03° 41' 47.30" 1.000E-01 0.500 F 0.130 0.178 19.1 V 0.70 0.44 o 691 0.45 Yes Yes
2014WJ70 O C 2015-05-28.30899 1.000E-05 16:33:01.680 1.500E-01 0.500 F 0.097 -0.055 +03° 16' 35.50" 1.000E-01 0.500 F 0.127 -0.017 18.8 V 0.70 -0.08 o 691 0.12 Yes Yes
2001TA45 O C 2015-05-28.32314 1.000E-05 16:16:09.690 1.500E-01 0.500 F 0.247 -0.371 +03° 42' 17.00" 1.000E-01 0.500 F 0.130 -0.001 18.9 V 0.70 0.24 o 691 0.74 Yes Yes
2014WJ70 O C 2015-05-28.32786 1.000E-05 16:33:00.570 1.500E-01 0.500 F 0.097 -1.060 +03° 16' 26.10" 1.000E-01 0.500 F 0.127 -0.092 18.3 V 0.70 -0.58 o 691 2.14 Yes Yes
2007HA59 O C H 2015-05-29.17948 1.000E-05 15:19:14.220 1.500E-01 0.500 F 0.115 -0.339 -15° 28' 30.20" 1.000E-01 0.500 F 0.088 -0.381 20.5 V 0.70 -0.37 o 691 1.02 Yes Yes
2007HA59 O C H 2015-05-29.18318 1.000E-05 15:19:13.950 1.500E-01 0.500 F 0.115 -0.342 -15° 28' 31.00" 1.000E-01 0.500 F 0.088 -0.946 20.7 V 0.70 -0.17 o 691 2.02 Yes Yes
2007HA59 O C H 2015-05-29.18687 1.000E-05 15:19:13.690 1.500E-01 0.500 F 0.115 -0.211 -15° 28' 31.00" 1.000E-01 0.500 F 0.088 -0.713 21.0 V 0.70 0.13 o 691 1.49 Yes Yes
2015KR154 O C H 2015-05-29.19170 1.000E-05 14:47:48.710 1.500E-01 0.612 F 0.139 -1.255 +26° 04' 13.00" 1.000E-01 0.612 F 0.305 -0.231 20.4 V 0.70 -0.31 o 691 2.09 Yes Yes
2015KR154 O C H 2015-05-29.19465 1.000E-05 14:47:48.780 1.500E-01 0.612 F 0.139 0.375 +26° 04' 06.20" 1.000E-01 0.612 F 0.305 0.425 20.4 V 0.70 -0.31 o 691 0.93 Yes Yes
2015KR154 O C H 2015-05-29.19759 1.000E-05 14:47:48.780 1.500E-01 0.612 F 0.139 1.064 +26° 03' 58.90" 1.000E-01 0.612 F 0.305 0.560 20.6 V 0.70 -0.11 o 691 1.97 Yes Yes
2015KM120 O C H 2015-05-29.22845 1.000E-05 14:10:11.000 1.500E-01 0.500 F 0.095 -0.530 +23° 21' 58.20" 1.000E-01 0.500 F 0.223 -0.826 19.4 V 0.70 -0.62 o 691 2.08 Yes Yes
2015KM120 O C H 2015-05-29.22977 1.000E-05 14:10:12.670 1.500E-01 0.500 F 0.095 0.080 +23° 22' 13.30" 1.000E-01 0.500 F 0.223 0.657 19.5 V 0.70 -0.52 o 691 1.38 Yes Yes
2015KM120 O C H 2015-05-29.23109 1.000E-05 14:10:14.240 1.500E-01 0.500 F 0.095 -0.691 +23° 22' 26.20" 1.000E-01 0.500 F 0.223 -0.055 19.3 V 0.70 -0.72 o 691 1.47 Yes Yes
2015JJ O C 2015-05-29.24472 1.000E-05 14:49:58.470 1.500E-01 0.500 F 0.146 -0.126 +27° 34' 55.20" 1.000E-01 0.500 F 0.134 -0.517 20.3 V 0.70 -0.27 o 691 1.07 Yes Yes
2015JJ O C 2015-05-29.24766 1.000E-05 14:49:58.450 1.500E-01 0.500 F 0.146 -0.155 +27° 35' 00.70" 1.000E-01 0.500 F 0.134 0.941 20.1 V 0.70 -0.47 o 691 1.91 Yes Yes
2015JJ O C 2015-05-29.25060 1.000E-05 14:49:58.380 1.500E-01 0.500 F 0.146 -0.850 +27° 35' 04.20" 1.000E-01 0.500 F 0.134 0.407 20.6 V 0.70 0.03 o 691 1.89 Yes Yes
2015KR154 O C H 2015-05-29.25384 1.000E-05 14:47:47.750 1.500E-01 0.612 F 0.139 0.641 +26° 01' 33.80" 1.000E-01 0.612 F 0.305 -1.155 o 691 2.17 Yes No
2015KR154 O C H 2015-05-29.25678 1.000E-05 14:47:47.670 1.500E-01 0.612 F 0.139 0.268 +26° 01' 26.70" 1.000E-01 0.612 F 0.305 -0.702 o 691 1.23 Yes No
2015KR154 O C H 2015-05-29.25972 1.000E-05 14:47:47.600 1.500E-01 0.612 F 0.139 0.029 +26° 01' 19.20" 1.000E-01 0.612 F 0.305 -0.642 o 691 1.06 Yes No
2003BX33 O C 2015-05-29.29409 1.000E-05 17:17:20.440 1.500E-01 0.500 F 0.080 -0.100 +20° 16' 41.90" 1.000E-01 0.500 F 0.263 0.870 20.5 V 0.70 0.95 o 691 1.78 Yes Yes
2003BX33 O C 2015-05-29.29897 1.000E-05 17:17:19.950 1.500E-01 0.500 F 0.080 -0.079 +20° 16' 59.10" 1.000E-01 0.500 F 0.263 -0.184 19.6 V 0.70 0.05 o 691 0.41 Yes Yes
2003BX33 O C 2015-05-29.30386 1.000E-05 17:17:19.450 1.500E-01 0.500 F 0.080 -0.172 +20° 17' 17.30" 1.000E-01 0.500 F 0.263 -0.269 19.8 V 0.70 0.25 o 691 0.65 Yes Yes
2000HD24 O C 2015-05-29.42285 1.000E-05 23:31:48.620 1.500E-01 0.500 F -0.136 0.046 +07° 32' 53.10" 1.000E-01 0.500 F 0.261 0.451 20.6 V 0.70 -0.16 o 691 0.91 Yes Yes
2000HD24 O C 2015-05-29.43464 1.000E-05 23:31:50.610 1.500E-01 0.500 F -0.136 -1.019 +07° 33' 08.90" 1.000E-01 0.500 F 0.261 0.156 20.5 V 0.70 -0.26 o 691 2.06 Yes Yes
2000HD24 O C 2015-05-29.44644 1.000E-05 23:31:52.720 1.500E-01 0.500 F -0.136 -0.305 +07° 33' 25.00" 1.000E-01 0.500 F 0.261 0.148 20.6 V 0.70 -0.16 o 691 0.68 Yes Yes
2015JJ O C H 2015-05-30.21724 1.000E-05 14:50:11.610 1.500E-01 0.500 F 0.146 0.109 +27° 56' 05.00" 1.000E-01 0.500 F 0.134 -0.652 o 691 1.33 Yes No
2015JJ O C H 2015-05-30.22384 1.000E-05 14:50:11.610 1.500E-01 0.500 F 0.146 0.427 +27° 56' 13.60" 1.000E-01 0.500 F 0.134 -0.314 o 691 1.06 Yes No
2002OM4 O C H 2015-05-30.42679 1.000E-05 23:10:44.630 1.500E-01 0.500 F -0.064 -0.328 +04° 24' 56.50" 1.000E-01 0.500 F 0.276 -0.207 20.8 V 0.70 -0.16 o 691 0.78 Yes Yes
2015BR514 O C 2015-05-30.43151 1.000E-05 23:22:53.320 1.500E-01 0.500 F -0.111 -0.217 +04° 42' 37.30" 1.000E-01 0.500 F 0.233 0.558 21.1 V 0.70 1.19 o 691 1.21 Yes Yes
2002OM4 O C H 2015-05-30.43857 1.000E-05 23:10:45.240 1.500E-01 0.500 F -0.064 0.322 +04° 24' 52.50" 1.000E-01 0.500 F 0.276 0.486 21.2 V 0.70 0.24 o 691 1.17 Yes Yes
2015BR514 O C 2015-05-30.44328 1.000E-05 23:22:52.770 1.500E-01 0.500 F -0.111 -0.414 +04° 43' 17.80" 1.000E-01 0.500 F 0.233 0.053 20.7 V 0.70 0.79 o 691 0.84 Yes Yes
2002OM4 O C H 2015-05-30.45034 1.000E-05 23:10:45.800 1.500E-01 0.500 F -0.064 0.254 +04° 24' 46.90" 1.000E-01 0.500 F 0.276 -0.422 21.1 V 0.70 0.14 o 691 0.99 Yes Yes
2015BR514 O C 2015-05-30.45507 1.000E-05 23:22:52.250 1.500E-01 0.500 F -0.111 -0.058 +04° 43' 58.80" 1.000E-01 0.500 F 0.233 -0.005 20.6 V 0.70 0.69 o 691 0.12 Yes Yes
2015KA122 O C 2015-05-31.38809 1.000E-05 15:10:12.570 1.500E-01 0.500 F 0.079 0.156 +15° 46' 47.00" 1.000E-01 0.500 F 0.243 0.031 o 691 0.32 Yes No
2015KA122 O C 2015-05-31.39139 1.000E-05 15:10:11.640 1.500E-01 0.500 F 0.079 0.055 +15° 46' 19.60" 1.000E-01 0.500 F 0.243 0.085 o 691 0.21 Yes No
2015KA122 O C 2015-05-31.39469 1.000E-05 15:10:10.720 1.500E-01 0.500 F 0.079 0.041 +15° 45' 52.10" 1.000E-01 0.500 F 0.243 0.085 o 691 0.19 Yes No
2015JY1 O C 2015-06-07.19760 1.000E-05 13:04:57.330 1.500E-01 0.500 F 0.287 -0.126 -28° 18' 18.80" 1.000E-01 0.500 F 0.163 0.053 18.6 V 0.70 -0.07 o 691 0.27 Yes Yes
2015JY1 O C 2015-06-07.19986 1.000E-05 13:04:57.450 1.500E-01 0.500 F 0.287 -0.149 -28° 18' 14.30" 1.000E-01 0.500 F 0.163 -0.113 18.5 V 0.70 -0.17 o 691 0.38 Yes Yes
2015JY1 O C 2015-06-07.20211 1.000E-05 13:04:57.570 1.500E-01 0.500 F 0.287 -0.168 -28° 18' 09.60" 1.000E-01 0.500 F 0.163 -0.063 18.6 V 0.70 -0.07 o 691 0.36 Yes Yes
2015HY116 O C H 2015-06-07.20903 1.000E-05 13:26:37.980 1.500E-01 0.500 F 0.166 0.450 +08° 36' 44.50" 1.000E-01 0.500 F 0.096 -0.420 o 691 1.23 Yes No
2015HY116 O C H 2015-06-07.21397 1.000E-05 13:26:37.720 1.500E-01 0.500 F 0.166 -0.038 +08° 36' 42.80" 1.000E-01 0.500 F 0.096 -0.703 o 691 1.41 Yes No
2015HY116 O C H 2015-06-07.21868 1.000E-05 13:26:37.490 1.500E-01 0.500 F 0.166 -0.240 +08° 36' 41.40" 1.000E-01 0.500 F 0.096 -0.751 o 691 1.58 Yes No
2005XE1 O C 2015-06-07.27064 1.000E-05 14:53:27.830 1.500E-01 0.500 F 0.042 -0.104 +11° 27' 24.10" 1.000E-01 0.500 F 0.156 0.112 20.7 V 0.70 -0.04 o 691 0.31 Yes Yes
2005XE1 O C 2015-06-07.27472 1.000E-05 14:53:27.410 1.500E-01 0.500 F 0.042 -0.272 +11° 27' 16.50" 1.000E-01 0.500 F 0.156 -0.344 20.6 V 0.70 -0.14 o 691 0.88 Yes Yes
2005XE1 O C 2015-06-07.27881 1.000E-05 14:53:26.940 1.500E-01 0.500 F 0.042 -1.163 +11° 27' 08.70" 1.000E-01 0.500 F 0.156 -0.981 20.1 V 0.70 -0.64 o 691 3.06 Yes Yes
2015FU332 O C 2015-06-07.28249 1.000E-05 14:51:20.240 1.500E-01 0.500 F 0.035 -0.233 +17° 39' 24.90" 1.000E-01 0.500 F 0.199 -0.350 19.9 V 0.70 -0.21 o 691 0.85 Yes Yes
2015KR154 O C 2015-06-07.28249 1.000E-05 14:49:04.420 1.500E-01 0.500 F -0.001 -0.357 +17° 26' 01.00" 1.000E-01 0.500 F 0.179 -0.430 20.2 V 0.70 -0.05 o 691 1.13 Yes Yes
2015FU332 O C 2015-06-07.28475 1.000E-05 14:51:20.100 1.500E-01 0.500 F 0.035 -0.144 +17° 39' 21.20" 1.000E-01 0.500 F 0.199 0.139 20.0 V 0.70 -0.11 o 691 0.40 Yes Yes
2015KR154 O C 2015-06-07.28475 1.000E-05 14:49:04.400 1.500E-01 0.500 F -0.001 -0.928 +17° 25' 52.00" 1.000E-01 0.500 F 0.179 0.593 19.9 V 0.70 -0.35 o 691 2.23 Yes Yes
2015FU332 O C 2015-06-07.28700 1.000E-05 14:51:19.940 1.500E-01 0.500 F 0.035 -0.350 +17° 39' 16.90" 1.000E-01 0.500 F 0.199 0.009 19.8 V 0.70 -0.31 o 691 0.70 Yes Yes
2015KR154 O C 2015-06-07.28700 1.000E-05 14:49:04.460 1.500E-01 0.500 F -0.001 -0.356 +17° 25' 41.30" 1.000E-01 0.500 F 0.179 -0.125 20.1 V 0.70 -0.15 o 691 0.76 Yes Yes
2015LJ O C 2015-06-07.34609 1.000E-05 15:28:47.910 1.500E-01 0.500 F 0.099 0.002 +11° 56' 03.30" 1.000E-01 0.500 F 0.205 0.410 20.4 V 0.70 -0.37 o 691 0.83 Yes Yes
2015LJ O C 2015-06-07.34858 1.000E-05 15:28:47.920 1.500E-01 0.500 F 0.099 -0.573 +11° 56' 08.00" 1.000E-01 0.500 F 0.205 0.039 20.4 V 0.70 -0.37 o 691 1.15 Yes Yes
2015LJ O C 2015-06-07.35107 1.000E-05 15:28:47.990 1.500E-01 0.500 F 0.099 -0.282 +11° 56' 13.20" 1.000E-01 0.500 F 0.205 0.172 20.5 V 0.70 -0.27 o 691 0.66 Yes Yes
2015LK O C 2015-06-07.36491 1.000E-05 16:07:11.360 1.500E-01 0.500 F 0.073 0.067 +11° 30' 59.70" 1.000E-01 0.500 F 0.167 -0.185 20.4 V 0.70 -0.22 o 691 0.40 Yes Yes
2015LK O C 2015-06-07.36647 1.000E-05 16:07:11.760 1.500E-01 0.500 F 0.073 -0.566 +11° 31' 07.30" 1.000E-01 0.500 F 0.167 0.002 21.0 V 0.70 0.38 o 691 1.14 Yes Yes
2015LK O C 2015-06-07.36803 1.000E-05 16:07:12.190 1.500E-01 0.500 F 0.073 -0.767 +11° 31' 14.50" 1.000E-01 0.500 F 0.167 -0.211 20.6 V 0.70 -0.02 o 691 1.61 Yes Yes
2015KK122 O C H 2015-06-07.42600 1.000E-05 16:23:09.470 1.500E-01 0.500 F 0.267 -0.128 -08° 16' 22.40" 1.000E-01 0.500 F 0.176 -0.829 o 691 1.69 Yes No
2015KK122 O C H 2015-06-07.42895 1.000E-05 16:23:09.490 1.500E-01 0.500 F 0.267 0.225 -08° 16' 17.90" 1.000E-01 0.500 F 0.176 -0.805 o 691 1.69 Yes No
2015KK122 O C H 2015-06-07.43190 1.000E-05 16:23:09.490 1.500E-01 0.500 F 0.267 0.274 -08° 16' 13.20" 1.000E-01 0.500 F 0.176 -0.582 o 691 1.30 Yes No
2015LH O C H 2015-06-07.43497 1.000E-05 16:36:12.460 1.500E-01 0.500 F 0.107 -0.386 +11° 31' 34.00" 1.000E-01 0.500 F 0.110 0.034 19.9 V 0.70 0.00 o 691 0.91 Yes Yes
2015LH O C H 2015-06-07.43653 1.000E-05 16:36:15.830 1.500E-01 0.500 F 0.107 0.537 +11° 31' 44.00" 1.000E-01 0.500 F 0.110 0.027 19.7 V 0.70 -0.20 o 691 1.27 Yes Yes
2015LH O C H 2015-06-07.43809 1.000E-05 16:36:19.120 1.500E-01 0.500 F 0.107 0.215 +11° 31' 53.90" 1.000E-01 0.500 F 0.110 -0.079 19.8 V 0.70 -0.10 o 691 0.53 Yes Yes
2015HB117 O C H 2015-06-07.44038 1.000E-05 17:00:18.510 1.500E-01 0.500 F -0.017 -0.158 +12° 48' 53.20" 1.000E-01 0.500 F 0.175 0.057 19.9 V 0.70 -0.26 o 691 0.34 Yes Yes
2015HB117 O C H 2015-06-07.44240 1.000E-05 17:00:18.900 1.500E-01 0.500 F -0.017 0.566 +12° 48' 56.20" 1.000E-01 0.500 F 0.175 -1.060 o 691 2.45 Yes No
2015HB117 O C H 2015-06-07.44443 1.000E-05 17:00:19.190 1.500E-01 0.500 F -0.017 -0.207 +12° 49' 01.30" 1.000E-01 0.500 F 0.175 -0.096 20.1 V 0.70 -0.06 o 691 0.47 Yes Yes
2009WN O C H 2015-06-07.45334 1.000E-05 18:13:56.370 1.500E-01 0.500 F -0.152 -1.675 -01° 24' 37.30" 1.000E-01 0.500 F 0.266 2.280 19.2 V 0.70 -0.40 o 691 5.58 No Yes
2009WN O C H 2015-06-07.45694 1.000E-05 18:13:55.960 1.500E-01 0.500 F -0.152 -0.103 -01° 24' 30.20" 1.000E-01 0.500 F 0.266 0.903 19.6 V 0.70 0.00 o 691 1.86 Yes Yes
2015JV O C H 2015-06-11.24839 1.000E-05 15:56:42.770 1.500E-01 0.500 F -0.060 0.523 -14° 33' 58.20" 1.000E-01 0.500 F 0.052 0.250 o 691 1.16 Yes No
2015JV O C H 2015-06-11.25370 1.000E-05 15:56:42.640 1.500E-01 0.500 F -0.060 0.285 -14° 34' 07.10" 1.000E-01 0.500 F 0.052 -1.651 o 691 3.33 No No
2015JV O C H 2015-06-11.25902 1.000E-05 15:56:42.510 1.500E-01 0.500 F -0.060 0.050 -14° 34' 12.00" 1.000E-01 0.500 F 0.052 0.454 o 691 0.92 Yes No
2015LK21 O C H 2015-06-12.18872 1.000E-05 16:26:18.500 1.500E-01 0.500 F 0.049 -1.073 +17° 03' 46.40" 1.000E-01 0.500 F 0.233 -0.255 o 691 2.22 Yes No
2015LK21 O C H 2015-06-12.19449 1.000E-05 16:26:18.180 1.500E-01 0.500 F 0.049 0.233 +17° 03' 47.30" 1.000E-01 0.500 F 0.233 -0.151 21.3 V 0.70 -0.41 o 691 0.56 Yes Yes
2015LK21 O C H 2015-06-12.20027 1.000E-05 16:26:17.720 1.500E-01 0.500 F 0.049 -0.456 +17° 03' 48.10" 1.000E-01 0.500 F 0.233 -0.146 21.5 V 0.70 -0.21 o 691 0.96 Yes Yes
2014WJ70 O C H 2015-06-12.23956 1.000E-05 16:22:26.150 1.500E-01 0.500 F 0.092 0.212 +00° 45' 23.90" 1.000E-01 0.500 F 0.272 0.084 19.5 V 0.70 0.13 o 691 0.45 Yes Yes
2014WJ70 O C H 2015-06-12.24673 1.000E-05 16:22:25.870 1.500E-01 0.500 F 0.092 -0.105 +00° 45' 18.80" 1.000E-01 0.500 F 0.272 -0.030 19.5 V 0.70 0.13 o 691 0.22 Yes Yes
2014WJ70 O C H 2015-06-12.25389 1.000E-05 16:22:25.620 1.500E-01 0.500 F 0.092 0.025 +00° 45' 13.70" 1.000E-01 0.500 F 0.272 -0.151 19.5 V 0.70 0.13 o 691 0.31 Yes Yes
2011AM24 O C 2015-06-12.25941 1.000E-05 14:22:45.780 1.500E-01 0.500 F -0.007 -0.119 +23° 58' 26.20" 1.000E-01 0.500 F 0.225 0.083 19.8 V 0.70 0.05 o 691 0.29 Yes Yes

[1-200] [201-400] [401-600] [601-800] [801-1000] [1001-1200] [1201-1400] [1401-1600] [1601-1800] [1801-2000] [2001-2200] [2201-2400] [2401-2600] [2601-2800] [2801-3000] [3001-3200] [3201-3400] [3401-3600] [3601-3800] [3801-4000] [4001-4200] [4201-4400] [4401-4600] [4601-4800] [4801-5000] [5001-5200] [5201-5400] [5401-5600] [5601-5800] [5801-6000] [6001-6200] [6201-6400] [6401-6600] [6601-6800] [6801-7000] [7001-7200] [7201-7400] [7401-7600] [7601-7800] [7801-8000] [8001-8200] [8201-8400] [8401-8600] [8601-8800] [8801-9000] [9001-9200] [9201-9400] [9401-9600] [9601-9800] [9801-10000] [10001-10200] [10201-10400] [10401-10600] [10601-10800] [10801-11000] [11001-11200] [11201-11400] [11401-11600] [11601-11800] [11801-12000] [12001-12200] [12201-12400] [12401-12600] [12601-12800] [12801-13000] [13001-13200] [13201-13400] [13401-13600] [13601-13800] [13801-14000] [14001-14200] [14201-14400] [14401-14600] [14601-14800] [14801-15000] [15001-15200] [15201-15400] [15401-15600] [15601-15800] [15801-16000] [16001-16200] [16201-16400] [16401-16600] [16601-16800] [16801-17000] [17001-17200] [17201-17400] [17401-17600] [17601-17800] [17801-18000] [18001-18200] [18201-18400] [18401-18600] [18601-18800] [18801-19000] [19001-19200] [19201-19400] [19401-19600] [19601-19800] [19801-20000] [20001-20200] [20201-20400] [20401-20600] [20601-20800] [20801-21000] [21001-21200] [21201-21400] [21401-21600] [21601-21800] [21801-22000] [22001-22200] [22201-22400] [22401-22600] [22601-22800] [22801-23000] [23001-23200] [23201-23400] [23401-23600] [23601-23800] [23801-24000] [24001-24200] [24201-24400] [24401-24600] [24601-24800] [24801-25000] [25001-25200] [25201-25400] [25401-25600] [25601-25800] [25801-26000] [26001-26200] [26201-26400] [26401-26600] [26601-26800] [26801-27000] [27001-27200] [27201-27400] [27401-27600] [27601-27800] [27801-28000] [28001-28200] [28201-28400] [28401-28600] [28601-28800] [28801-29000] [29001-29200] [29201-29400] [29401-29600] [29601-29800] [29801-30000] [30001-30200] [30201-30400] [30401-30600] [30601-30800] [30801-31000] [31001-31200] [31201-31400] [31401-31600] [31601-31800] [31801-32000] [32001-32200] [32201-32400] [32401-32600] [32601-32800] [32801-33000] [33001-33200] [33201-33400] [33401-33600] [33601-33800] [33801-34000] [34001-34200] [34201-34400] [34401-34600] [34601-34800] [34801-35000] [35001-35200] [35201-35400] [35401-35600] [35601-35800] [35801-36000] [36001-36200] [36201-36400] [36401-36600] [36601-36800] [36801-37000] [37001-37200] [37201-37400] [37401-37600] [37601-37800] [37801-38000] [38001-38200] [38201-38400] [38401-38600] [38601-38800] [38801-39000] [39001-39200] [39201-39400] [39401-39600] [39601-39800] [39801-40000] [40001-40200] [40201-40400] [40401-40600] [40601-40800] [40801-41000] [41001-41200] [41201-41400] [41401-41600] [41601-41800] [41801-42000] [42001-42200] [42201-42400] [42401-42600] [42601-42800] [42801-43000] [43001-43200] [43201-43400] [43401-43600] [43601-43800] [43801-44000] [44001-44200] [44201-44400] [44401-44600] [44601-44800] [44801-45000] [45001-45200] [45201-45400] [45401-45600] [45601-45800] [45801-46000] [46001-46200] [46201-46400] [46401-46600] [46601-46800] [46801-47000] [47001-47200] [47201-47400] [47401-47600] [47601-47800] [47801-48000] [48001-48200] [48201-48400] [48401-48600] [48601-48800] [48801-49000] [49001-49200] [49201-49400] [49401-49600] [49601-49800] [49801-50000] [50001-50200] [50201-50388]